createdAt,value
2023-07-06T00:01:02.717Z,13.68
2023-07-06T00:03:33.165Z,13.75
2023-07-06T00:06:00.652Z,13.71
2023-07-06T00:08:28.810Z,13.84
2023-07-06T00:10:55.945Z,13.85
2023-07-06T00:13:23.554Z,13.85
2023-07-06T00:15:50.895Z,13.85
2023-07-06T00:18:18.671Z,13.87
2023-07-06T00:20:45.224Z,13.89
2023-07-06T00:23:12.407Z,13.89
2023-07-06T00:25:42.653Z,13.94
2023-07-06T00:28:10.826Z,13.96
2023-07-06T00:30:46.130Z,13.96
2023-07-06T00:33:21.056Z,13.96
2023-07-06T00:35:48.874Z,13.94
2023-07-06T00:38:17.515Z,13.97
2023-07-06T00:40:47.073Z,13.89
2023-07-06T00:43:18.651Z,14.00
2023-07-06T00:45:46.792Z,13.94
2023-07-06T00:48:27.620Z,13.92
2023-07-06T00:51:01.240Z,13.94
2023-07-06T00:53:30.860Z,13.90
2023-07-06T00:55:59.406Z,13.94
2023-07-06T00:58:30.538Z,13.84
2023-07-06T01:01:00.926Z,13.92
2023-07-06T01:03:27.659Z,13.89
2023-07-06T01:06:00.037Z,13.85
2023-07-06T01:08:26.779Z,13.88
2023-07-06T01:10:55.143Z,13.89
2023-07-06T01:13:27.949Z,13.85
2023-07-06T01:16:14.338Z,13.77
2023-07-06T01:18:58.881Z,13.80
2023-07-06T01:21:32.383Z,13.81
2023-07-06T01:24:30.971Z,13.77
2023-07-06T01:27:21.919Z,13.79
2023-07-06T01:30:07.385Z,13.85
2023-07-06T01:32:38.356Z,13.82
2023-07-06T01:35:26.938Z,13.83
2023-07-06T01:37:53.605Z,13.81
2023-07-06T01:40:20.226Z,13.74
2023-07-06T01:42:46.798Z,13.95
2023-07-06T01:45:22.428Z,13.88
2023-07-06T01:47:58.906Z,13.94
2023-07-06T01:51:12.290Z,13.88
2023-07-06T01:53:56.669Z,13.98
2023-07-06T01:56:44.954Z,14.00
2023-07-06T01:59:11.387Z,13.76
2023-07-06T02:01:43.947Z,13.94
2023-07-06T02:04:11.631Z,13.97
2023-07-06T02:06:38.551Z,13.92
2023-07-06T02:09:06.322Z,14.06
2023-07-06T02:11:34.259Z,14.04
2023-07-06T02:14:00.824Z,14.06
2023-07-06T02:16:27.450Z,14.11
2023-07-06T02:18:56.539Z,14.09
2023-07-06T02:21:23.289Z,14.08
2023-07-06T02:23:49.872Z,14.11
2023-07-06T02:26:16.731Z,14.10
2023-07-06T02:28:43.362Z,14.11
2023-07-06T02:31:10.531Z,14.12
2023-07-06T02:33:37.134Z,14.05
2023-07-06T02:36:04.255Z,13.95
2023-07-06T02:38:31.028Z,13.99
2023-07-06T02:41:00.482Z,13.96
2023-07-06T02:43:27.357Z,14.04
2023-07-06T02:45:54.051Z,14.04
2023-07-06T02:48:20.782Z,14.08
2023-07-06T02:50:51.164Z,14.05
2023-07-06T02:53:18.363Z,14.12
2023-07-06T02:55:49.249Z,14.05
2023-07-06T02:58:16.425Z,14.10
2023-07-06T03:00:43.041Z,14.06
2023-07-06T03:03:10.344Z,14.05
2023-07-06T03:05:37.462Z,14.02
2023-07-06T03:08:07.017Z,14.05
2023-07-06T03:10:33.678Z,13.92
2023-07-06T03:13:01.079Z,14.04
2023-07-06T03:15:30.048Z,14.06
2023-07-06T03:17:56.969Z,13.93
2023-07-06T03:20:24.204Z,14.06
2023-07-06T03:22:53.250Z,14.09
2023-07-06T03:25:25.619Z,14.12
2023-07-06T03:27:52.680Z,14.15
2023-07-06T03:30:22.479Z,14.14
2023-07-06T03:32:49.009Z,13.95
2023-07-06T03:35:16.185Z,14.12
2023-07-06T03:37:43.829Z,14.14
2023-07-06T03:40:15.440Z,14.15
2023-07-06T03:42:44.223Z,14.07
2023-07-06T03:45:15.052Z,14.16
2023-07-06T03:47:47.273Z,14.19
2023-07-06T03:50:15.959Z,14.18
2023-07-06T03:52:43.289Z,14.18
2023-07-06T03:55:19.374Z,14.11
2023-07-06T03:58:02.991Z,13.89
2023-07-06T04:00:32.094Z,13.82
2023-07-06T04:03:02.128Z,14.10
2023-07-06T04:05:33.970Z,14.11
2023-07-06T04:08:05.653Z,14.15
2023-07-06T04:10:33.092Z,14.13
2023-07-06T04:12:59.610Z,14.20
2023-07-06T04:15:26.980Z,14.20
2023-07-06T04:17:53.898Z,14.25
2023-07-06T04:20:29.208Z,14.22
2023-07-06T04:22:58.295Z,13.97
2023-07-06T04:25:32.612Z,14.11
2023-07-06T04:28:04.042Z,14.29
2023-07-06T04:30:34.805Z,14.25
2023-07-06T04:33:02.256Z,14.30
2023-07-06T04:35:29.066Z,14.25
2023-07-06T04:37:55.660Z,14.33
2023-07-06T04:40:22.589Z,14.33
2023-07-06T04:42:52.372Z,14.34
2023-07-06T04:45:19.122Z,14.15
2023-07-06T04:47:46.670Z,14.31
2023-07-06T04:50:18.805Z,14.35
2023-07-06T04:52:47.025Z,14.29
2023-07-06T04:55:13.775Z,14.32
2023-07-06T04:57:40.644Z,14.33
2023-07-06T05:00:18.922Z,14.38
2023-07-06T05:02:47.409Z,14.37
2023-07-06T05:05:14.637Z,14.38
2023-07-06T05:07:42.825Z,14.41
2023-07-06T05:10:09.936Z,14.48
2023-07-06T05:12:36.849Z,14.51
2023-07-06T05:15:04.339Z,14.51
2023-07-06T05:17:30.908Z,14.54
2023-07-06T05:19:57.669Z,14.65
2023-07-06T05:22:25.267Z,14.70
2023-07-06T05:24:52.534Z,14.74
2023-07-06T05:27:20.392Z,14.78
2023-07-06T05:29:46.905Z,14.90
2023-07-06T05:32:13.511Z,14.96
2023-07-06T05:34:40.350Z,15.06
2023-07-06T05:37:06.973Z,15.08
2023-07-06T05:39:33.614Z,15.13
2023-07-06T05:42:00.097Z,15.05
2023-07-06T05:44:26.641Z,15.19
2023-07-06T05:46:53.361Z,15.22
2023-07-06T05:49:19.962Z,15.24
2023-07-06T05:51:46.605Z,15.25
2023-07-06T05:54:13.094Z,15.36
2023-07-06T05:56:39.570Z,15.41
2023-07-06T05:59:06.124Z,15.43
2023-07-06T06:01:33.470Z,15.55
2023-07-06T06:04:02.911Z,15.64
2023-07-06T06:06:29.547Z,15.75
2023-07-06T06:08:56.712Z,15.81
2023-07-06T06:11:23.587Z,15.87
2023-07-06T06:13:50.453Z,15.87
2023-07-06T06:16:17.256Z,15.87
2023-07-06T06:18:45.353Z,15.87
2023-07-06T06:21:12.054Z,15.86
2023-07-06T06:23:38.599Z,15.89
2023-07-06T06:26:05.310Z,15.92
2023-07-06T06:28:31.965Z,16.01
2023-07-06T06:30:58.581Z,16.11
2023-07-06T06:33:25.097Z,16.20
2023-07-06T06:35:51.943Z,16.41
2023-07-06T06:38:18.808Z,16.50
2023-07-06T06:40:45.847Z,16.51
2023-07-06T06:43:12.437Z,16.47
2023-07-06T06:45:40.560Z,16.58
2023-07-06T06:48:07.436Z,16.62
2023-07-06T06:50:34.151Z,16.56
2023-07-06T06:53:00.887Z,16.59
2023-07-06T06:55:28.153Z,16.65
2023-07-06T06:57:54.698Z,16.79
2023-07-06T07:00:21.421Z,16.71
2023-07-06T07:02:48.185Z,16.97
2023-07-06T07:05:16.651Z,17.05
2023-07-06T07:07:43.609Z,17.23
2023-07-06T07:10:10.984Z,17.38
2023-07-06T07:12:42.055Z,17.38
2023-07-06T07:15:11.135Z,17.38
2023-07-06T07:17:38.734Z,17.49
2023-07-06T07:20:06.978Z,17.61
2023-07-06T07:22:34.081Z,17.69
2023-07-06T07:25:00.715Z,17.67
2023-07-06T07:27:29.535Z,17.72
2023-07-06T07:29:57.792Z,17.85
2023-07-06T07:32:24.296Z,18.01
2023-07-06T07:34:53.857Z,18.08
2023-07-06T07:37:22.109Z,18.10
2023-07-06T07:39:49.946Z,18.18
2023-07-06T07:42:17.574Z,18.32
2023-07-06T07:44:47.985Z,18.50
2023-07-06T07:47:20.217Z,18.62
2023-07-06T07:49:47.823Z,18.62
2023-07-06T07:52:14.729Z,18.71
2023-07-06T07:54:41.668Z,18.67
2023-07-06T07:57:08.330Z,18.46
2023-07-06T07:59:34.921Z,18.47
2023-07-06T08:02:01.826Z,18.71
2023-07-06T08:04:28.481Z,18.90
2023-07-06T08:06:56.245Z,19.04
2023-07-06T08:09:22.779Z,19.02
2023-07-06T08:11:49.411Z,19.15
2023-07-06T08:14:33.692Z,18.97
2023-07-06T08:17:00.160Z,19.09
2023-07-06T08:19:29.987Z,19.22
2023-07-06T08:22:14.164Z,19.45
2023-07-06T08:24:40.756Z,19.41
2023-07-06T08:27:07.366Z,19.62
2023-07-06T08:29:34.040Z,20.03
2023-07-06T08:32:00.775Z,20.31
2023-07-06T08:34:29.913Z,20.26
2023-07-06T08:36:57.025Z,20.03
2023-07-06T08:39:23.671Z,20.19
2023-07-06T08:41:50.825Z,20.27
2023-07-06T08:44:20.424Z,20.06
2023-07-06T08:46:49.727Z,20.02
2023-07-06T08:49:44.738Z,20.40
2023-07-06T08:52:13.966Z,20.76
2023-07-06T08:54:41.253Z,20.83
2023-07-06T08:57:16.995Z,20.59
2023-07-06T08:59:45.428Z,20.87
2023-07-06T09:02:26.640Z,20.89
2023-07-06T09:04:55.065Z,21.12
2023-07-06T09:07:31.894Z,21.27
2023-07-06T09:10:14.151Z,21.18
2023-07-06T09:12:46.473Z,21.54
2023-07-06T09:15:17.609Z,21.83
2023-07-06T09:17:49.077Z,21.80
2023-07-06T09:20:18.095Z,21.90
2023-07-06T09:22:46.169Z,21.71
2023-07-06T09:25:16.380Z,21.70
2023-07-06T09:27:49.052Z,21.47
2023-07-06T09:30:31.463Z,21.03
2023-07-06T09:33:06.966Z,20.91
2023-07-06T09:35:37.087Z,21.12
2023-07-06T09:38:04.251Z,21.57
2023-07-06T09:43:22.736Z,21.59
2023-07-06T09:45:50.859Z,21.75
2023-07-06T09:48:33.518Z,21.83
2023-07-06T09:51:14.476Z,21.71
2023-07-06T09:53:49.989Z,21.84
2023-07-06T09:56:16.858Z,21.40
2023-07-06T09:58:46.873Z,21.11
2023-07-06T10:01:29.834Z,20.85
2023-07-06T10:04:25.501Z,20.64
2023-07-06T10:07:11.809Z,20.73
2023-07-06T10:09:55.800Z,20.69
2023-07-06T10:12:35.271Z,20.69
2023-07-06T10:15:18.554Z,20.90
2023-07-06T10:17:52.284Z,20.92
2023-07-06T10:20:27.294Z,21.03
2023-07-06T10:23:17.935Z,21.21
2023-07-06T10:26:15.298Z,21.53
2023-07-06T10:28:52.533Z,21.88
2023-07-06T10:31:22.393Z,21.91
2023-07-06T10:33:53.521Z,21.93
2023-07-06T10:36:20.316Z,22.22
2023-07-06T10:38:49.503Z,22.34
2023-07-06T10:41:16.004Z,22.00
2023-07-06T10:43:44.376Z,21.79
2023-07-06T10:46:32.575Z,20.84
2023-07-06T10:49:15.712Z,20.88
2023-07-06T10:51:57.286Z,20.48
2023-07-06T10:54:26.089Z,20.36
2023-07-06T10:57:04.881Z,20.11
2023-07-06T10:59:38.763Z,20.02
2023-07-06T11:02:24.619Z,19.93
2023-07-06T11:05:20.557Z,19.84
2023-07-06T11:07:48.083Z,19.85
2023-07-06T11:10:14.658Z,19.94
2023-07-06T11:13:17.583Z,19.73
2023-07-06T11:15:44.725Z,19.92
2023-07-06T11:18:36.527Z,19.74
2023-07-06T11:21:24.545Z,19.86
2023-07-06T11:23:55.154Z,20.05
2023-07-06T11:26:41.649Z,19.81
2023-07-06T11:29:09.634Z,20.31
2023-07-06T11:31:44.647Z,20.41
2023-07-06T11:34:42.291Z,20.32
2023-07-06T11:37:24.221Z,20.47
2023-07-06T11:40:02.103Z,20.59
2023-07-06T11:42:35.024Z,20.45
2023-07-06T11:45:09.243Z,20.35
2023-07-06T11:47:39.402Z,20.36
2023-07-06T11:50:10.925Z,20.19
2023-07-06T11:52:40.879Z,20.39
2023-07-06T11:55:35.093Z,20.38
2023-07-06T11:58:19.437Z,20.11
2023-07-06T12:00:53.504Z,20.61
2023-07-06T12:03:27.315Z,20.98
2023-07-06T12:06:00.154Z,21.35
2023-07-06T12:08:31.205Z,21.59
2023-07-06T12:11:05.044Z,21.78
2023-07-06T12:13:35.306Z,22.04
2023-07-06T12:16:15.427Z,22.03
2023-07-06T12:18:43.741Z,21.99
2023-07-06T12:21:41.204Z,21.95
2023-07-06T12:24:16.608Z,22.39
2023-07-06T12:26:47.390Z,22.94
2023-07-06T12:29:16.416Z,23.31
2023-07-06T12:31:46.903Z,23.59
2023-07-06T12:34:19.192Z,23.51
2023-07-06T12:36:50.984Z,23.41
2023-07-06T12:39:20.765Z,23.64
2023-07-06T12:41:48.302Z,23.85
2023-07-06T12:44:18.935Z,24.04
2023-07-06T12:46:59.452Z,24.27
2023-07-06T12:49:26.026Z,24.46
2023-07-06T12:51:57.327Z,25.10
2023-07-06T12:54:29.151Z,25.64
2023-07-06T12:57:19.270Z,25.99
2023-07-06T12:59:51.553Z,26.47
2023-07-06T13:02:21.268Z,27.13
2023-07-06T13:04:49.300Z,26.94
2023-07-06T13:07:18.306Z,27.27
2023-07-06T13:09:45.053Z,27.58
2023-07-06T13:12:19.622Z,27.48
2023-07-06T13:14:47.918Z,27.20
2023-07-06T13:17:16.956Z,27.37
2023-07-06T13:19:44.202Z,25.65
2023-07-06T13:22:12.399Z,25.76
2023-07-06T13:24:41.134Z,26.44
2023-07-06T13:27:12.957Z,27.13
2023-07-06T13:29:39.825Z,27.79
2023-07-06T13:32:06.528Z,28.24
2023-07-06T13:34:33.339Z,28.35
2023-07-06T13:36:59.954Z,29.16
2023-07-06T13:39:26.953Z,28.88
2023-07-06T13:41:53.440Z,29.25
2023-07-06T13:44:20.546Z,29.90
2023-07-06T13:46:48.424Z,29.95
2023-07-06T13:49:15.966Z,29.98
2023-07-06T13:51:43.110Z,29.80
2023-07-06T13:54:12.127Z,30.36
2023-07-06T13:56:39.620Z,28.43
2023-07-06T13:59:06.082Z,28.24
2023-07-06T14:01:33.261Z,28.60
2023-07-06T14:04:00.290Z,28.21
2023-07-06T14:06:26.938Z,27.73
2023-07-06T14:08:53.498Z,28.21
2023-07-06T14:11:20.336Z,27.81
2023-07-06T14:13:48.591Z,28.42
2023-07-06T14:16:16.822Z,28.74
2023-07-06T14:18:44.323Z,28.81
2023-07-06T14:21:12.897Z,28.60
2023-07-06T14:23:39.932Z,28.85
2023-07-06T14:26:06.585Z,28.78
2023-07-06T14:28:33.345Z,28.63
2023-07-06T14:31:04.180Z,28.30
2023-07-06T14:33:30.990Z,27.83
2023-07-06T14:35:57.888Z,27.67
2023-07-06T14:38:25.308Z,27.47
2023-07-06T14:40:51.901Z,27.23
2023-07-06T14:43:18.627Z,27.09
2023-07-06T14:45:46.896Z,27.29
2023-07-06T14:48:14.046Z,27.46
2023-07-06T14:50:40.630Z,27.31
2023-07-06T14:53:10.290Z,27.49
2023-07-06T14:55:36.862Z,27.58
2023-07-06T14:58:03.990Z,27.49
2023-07-06T15:00:31.285Z,26.99
2023-07-06T15:02:58.135Z,26.98
2023-07-06T15:05:25.090Z,27.05
2023-07-06T15:07:51.695Z,26.95
2023-07-06T15:10:18.614Z,26.77
2023-07-06T15:12:45.376Z,26.98
2023-07-06T15:15:12.389Z,26.93
2023-07-06T15:17:39.357Z,27.02
2023-07-06T15:20:08.913Z,27.14
2023-07-06T15:22:36.071Z,27.30
2023-07-06T15:25:03.876Z,27.19
2023-07-06T15:27:30.671Z,27.25
2023-07-06T15:29:57.762Z,27.13
2023-07-06T15:32:25.580Z,26.95
2023-07-06T15:35:00.603Z,26.63
2023-07-06T15:37:28.819Z,25.90
2023-07-06T15:39:58.348Z,25.58
2023-07-06T15:42:25.557Z,25.64
2023-07-06T15:44:52.112Z,25.79
2023-07-06T15:47:18.682Z,25.98
2023-07-06T15:49:45.606Z,26.57
2023-07-06T15:52:12.491Z,26.57
2023-07-06T15:54:39.109Z,26.65
2023-07-06T15:57:06.016Z,26.79
2023-07-06T15:59:32.538Z,26.40
2023-07-06T16:02:00.051Z,26.26
2023-07-06T16:04:26.700Z,25.97
2023-07-06T16:06:53.307Z,25.41
2023-07-06T16:09:20.048Z,25.71
2023-07-06T16:11:47.809Z,26.07
2023-07-06T16:14:18.232Z,26.21
2023-07-06T16:16:45.996Z,26.27
2023-07-06T16:19:13.990Z,26.46
2023-07-06T16:21:41.108Z,26.43
2023-07-06T16:24:08.798Z,26.33
2023-07-06T16:26:35.296Z,26.37
2023-07-06T16:29:02.088Z,26.42
2023-07-06T16:31:30.882Z,26.06
2023-07-06T16:33:59.339Z,25.76
2023-07-06T16:36:25.914Z,25.68
2023-07-06T16:38:52.969Z,25.45
2023-07-06T16:41:19.554Z,25.43
2023-07-06T16:43:46.063Z,25.62
2023-07-06T16:46:13.529Z,25.51
2023-07-06T16:48:40.055Z,25.64
2023-07-06T16:51:06.858Z,25.61
2023-07-06T16:53:34.732Z,25.58
2023-07-06T16:56:01.775Z,25.77
2023-07-06T16:58:29.868Z,25.70
2023-07-06T17:01:03.400Z,25.49
2023-07-06T17:03:30.618Z,25.59
2023-07-06T17:05:58.428Z,25.61
2023-07-06T17:08:26.444Z,25.29
2023-07-06T17:10:53.094Z,25.22
2023-07-06T17:13:19.790Z,25.05
2023-07-06T17:15:49.961Z,24.85
2023-07-06T17:18:17.127Z,24.72
2023-07-06T17:20:43.712Z,24.74
2023-07-06T17:23:10.341Z,24.53
2023-07-06T17:25:37.005Z,24.39
2023-07-06T17:28:03.741Z,24.25
2023-07-06T17:30:30.228Z,24.24
2023-07-06T17:32:56.904Z,24.28
2023-07-06T17:35:23.574Z,24.33
2023-07-06T17:37:50.145Z,24.40
2023-07-06T17:40:16.838Z,24.41
2023-07-06T17:42:43.368Z,24.36
2023-07-06T17:45:10.219Z,24.30
2023-07-06T17:47:36.948Z,24.26
2023-07-06T17:50:03.670Z,24.11
2023-07-06T17:52:30.656Z,24.13
2023-07-06T17:54:57.143Z,24.06
2023-07-06T17:57:23.607Z,23.92
2023-07-06T17:59:50.142Z,23.96
2023-07-06T18:02:18.742Z,24.01
2023-07-06T18:04:46.000Z,23.98
2023-07-06T18:07:12.621Z,23.93
2023-07-06T18:09:39.219Z,23.93
2023-07-06T18:12:06.206Z,23.85
2023-07-06T18:14:33.216Z,23.79
2023-07-06T18:17:01.334Z,23.68
2023-07-06T18:19:29.934Z,23.56
2023-07-06T18:21:58.191Z,23.47
2023-07-06T18:24:25.052Z,23.36
2023-07-06T18:26:54.928Z,23.32
2023-07-06T18:29:22.012Z,23.26
2023-07-06T18:31:49.782Z,23.23
2023-07-06T18:34:17.074Z,23.23
2023-07-06T18:36:43.540Z,23.17
2023-07-06T18:39:10.116Z,23.17
2023-07-06T18:41:36.653Z,23.10
2023-07-06T18:44:03.360Z,23.06
2023-07-06T18:46:29.974Z,23.06
2023-07-06T18:48:56.501Z,22.98
2023-07-06T18:51:22.961Z,22.97
2023-07-06T18:53:49.678Z,22.92
2023-07-06T18:56:16.720Z,22.92
2023-07-06T18:58:43.625Z,22.84
2023-07-06T19:01:12.256Z,22.70
2023-07-06T19:03:39.452Z,22.66
2023-07-06T19:06:16.290Z,22.57
2023-07-06T19:08:44.011Z,22.55
2023-07-06T19:11:13.271Z,22.53
2023-07-06T19:13:39.887Z,22.41
2023-07-06T19:16:06.395Z,22.36
2023-07-06T19:18:33.033Z,22.29
2023-07-06T19:20:59.582Z,22.18
2023-07-06T19:23:26.893Z,22.08
2023-07-06T19:25:53.360Z,21.98
2023-07-06T19:28:20.501Z,21.90
2023-07-06T19:30:47.433Z,21.82
2023-07-06T19:33:14.054Z,21.74
2023-07-06T19:35:40.541Z,21.68
2023-07-06T19:38:07.346Z,21.63
2023-07-06T19:40:34.086Z,21.60
2023-07-06T19:43:00.676Z,21.48
2023-07-06T19:45:27.326Z,21.42
2023-07-06T19:47:55.302Z,21.27
2023-07-06T19:50:22.608Z,21.14
2023-07-06T19:52:49.227Z,21.07
2023-07-06T19:55:15.815Z,20.86
2023-07-06T19:57:44.815Z,20.80
2023-07-06T20:00:11.978Z,20.36
2023-07-06T20:02:38.606Z,20.47
2023-07-06T20:05:05.717Z,20.41
2023-07-06T20:07:32.166Z,20.33
2023-07-06T20:09:58.798Z,20.26
2023-07-06T20:12:25.283Z,20.19
2023-07-06T20:14:51.774Z,20.04
2023-07-06T20:17:18.275Z,20.01
2023-07-06T20:19:44.920Z,19.78
2023-07-06T20:22:12.409Z,19.78
2023-07-06T20:24:38.972Z,19.84
2023-07-06T20:27:05.734Z,19.79
2023-07-06T20:29:33.775Z,19.64
2023-07-06T20:32:02.172Z,19.59
2023-07-06T20:34:29.758Z,19.48
2023-07-06T20:36:56.320Z,19.40
2023-07-06T20:39:22.831Z,19.36
2023-07-06T20:41:49.417Z,19.31
2023-07-06T20:44:15.948Z,19.21
2023-07-06T20:46:42.527Z,19.14
2023-07-06T20:49:09.096Z,19.10
2023-07-06T20:51:35.585Z,18.85
2023-07-06T20:54:02.030Z,19.00
2023-07-06T20:56:28.489Z,18.88
2023-07-06T20:58:55.507Z,18.85
2023-07-06T21:01:22.086Z,18.79
2023-07-06T21:03:48.663Z,18.75
2023-07-06T21:06:15.559Z,18.73
2023-07-06T21:08:42.033Z,18.63
2023-07-06T21:11:08.535Z,18.57
2023-07-06T21:13:35.075Z,18.53
2023-07-06T21:16:06.249Z,18.45
2023-07-06T21:18:33.583Z,18.25
2023-07-06T21:21:00.922Z,18.35
2023-07-06T21:23:29.195Z,18.22
2023-07-06T21:25:55.898Z,18.17
2023-07-06T21:28:22.381Z,18.09
2023-07-06T21:30:48.920Z,18.05
2023-07-06T21:33:15.697Z,18.04
2023-07-06T21:35:42.268Z,17.96
2023-07-06T21:38:09.054Z,17.91
2023-07-06T21:40:35.942Z,17.86
2023-07-06T21:43:02.891Z,17.86
2023-07-06T21:45:29.501Z,17.77
2023-07-06T21:47:56.030Z,17.76
2023-07-06T21:50:22.652Z,17.68
2023-07-06T21:52:49.106Z,17.68
2023-07-06T21:55:15.768Z,17.65
2023-07-06T21:57:42.258Z,17.57
2023-07-06T22:00:12.537Z,17.52
2023-07-06T22:02:39.556Z,17.46
2023-07-06T22:05:06.275Z,17.40
2023-07-06T22:07:32.794Z,17.37
2023-07-06T22:09:59.229Z,17.36
2023-07-06T22:12:25.827Z,17.35
2023-07-06T22:14:52.343Z,17.33
2023-07-06T22:17:19.054Z,17.34
2023-07-06T22:19:45.506Z,17.33
2023-07-06T22:22:11.993Z,17.28
2023-07-06T22:24:38.501Z,17.26
2023-07-06T22:27:05.421Z,17.22
2023-07-06T22:29:31.976Z,17.17
2023-07-06T22:31:58.535Z,17.13
2023-07-06T22:34:25.187Z,17.08
2023-07-06T22:36:51.718Z,17.04
2023-07-06T22:39:18.249Z,17.02
2023-07-06T22:41:44.806Z,16.97
2023-07-06T22:44:11.290Z,16.95
2023-07-06T22:46:37.898Z,16.92
2023-07-06T22:49:05.553Z,16.99
2023-07-06T22:51:32.129Z,17.00
2023-07-06T22:53:58.607Z,16.98
2023-07-06T22:56:25.191Z,16.94
2023-07-06T22:58:51.729Z,16.89
2023-07-06T23:01:20.719Z,16.86
2023-07-06T23:03:47.419Z,16.84
2023-07-06T23:06:14.413Z,16.87
2023-07-06T23:08:40.970Z,16.87
2023-07-06T23:11:08.357Z,16.83
2023-07-06T23:13:35.009Z,16.80
2023-07-06T23:16:01.637Z,16.76
2023-07-06T23:18:29.211Z,16.72
2023-07-06T23:20:57.652Z,16.69
2023-07-06T23:23:26.472Z,16.69
2023-07-06T23:25:53.091Z,16.64
2023-07-06T23:28:23.368Z,16.60
2023-07-06T23:30:51.758Z,16.57
2023-07-06T23:33:18.305Z,16.55
2023-07-06T23:35:46.750Z,16.54
2023-07-06T23:38:14.662Z,16.50
2023-07-06T23:40:45.162Z,16.49
2023-07-06T23:43:12.181Z,16.43
2023-07-06T23:45:38.814Z,16.45
2023-07-06T23:48:06.066Z,16.38
2023-07-06T23:50:32.808Z,16.35
2023-07-06T23:52:59.409Z,16.45
2023-07-06T23:55:25.940Z,16.37
2023-07-06T23:57:52.859Z,16.38
